sensor_id;sensor_type;location;lat;lon;timestamp;P1;durP1;ratioP1;P2;durP2;ratioP2
12970;SDS011;6550;48.650;8.774;2024-02-26T00:01:31;8.57;;;5.70;;
12970;SDS011;6550;48.650;8.774;2024-02-26T00:03:59;7.90;;;5.63;;
12970;SDS011;6550;48.650;8.774;2024-02-26T00:06:29;6.90;;;5.43;;
12970;SDS011;6550;48.650;8.774;2024-02-26T00:08:56;6.83;;;5.63;;
12970;SDS011;6550;48.650;8.774;2024-02-26T00:11:27;6.85;;;5.93;;
12970;SDS011;6550;48.650;8.774;2024-02-26T00:13:56;9.63;;;5.70;;
12970;SDS011;6550;48.650;8.774;2024-02-26T00:16:25;6.43;;;5.40;;
12970;SDS011;6550;48.650;8.774;2024-02-26T00:18:54;6.93;;;5.50;;
12970;SDS011;6550;48.650;8.774;2024-02-26T00:21:24;6.77;;;5.10;;
12970;SDS011;6550;48.650;8.774;2024-02-26T00:23:56;5.90;;;4.80;;
12970;SDS011;6550;48.650;8.774;2024-02-26T00:26:25;6.37;;;5.13;;
12970;SDS011;6550;48.650;8.774;2024-02-26T00:28:51;8.17;;;5.60;;
12970;SDS011;6550;48.650;8.774;2024-02-26T00:31:18;7.93;;;5.10;;
12970;SDS011;6550;48.650;8.774;2024-02-26T00:33:47;8.20;;;4.90;;
12970;SDS011;6550;48.650;8.774;2024-02-26T00:36:14;5.70;;;4.80;;
12970;SDS011;6550;48.650;8.774;2024-02-26T00:38:43;10.33;;;5.63;;
12970;SDS011;6550;48.650;8.774;2024-02-26T00:41:12;7.03;;;5.67;;
12970;SDS011;6550;48.650;8.774;2024-02-26T00:43:39;8.23;;;5.93;;
12970;SDS011;6550;48.650;8.774;2024-02-26T00:46:08;10.30;;;5.30;;
12970;SDS011;6550;48.650;8.774;2024-02-26T00:48:35;8.20;;;6.13;;
12970;SDS011;6550;48.650;8.774;2024-02-26T00:51:03;9.73;;;7.00;;
12970;SDS011;6550;48.650;8.774;2024-02-26T00:53:31;8.37;;;5.93;;
12970;SDS011;6550;48.650;8.774;2024-02-26T00:56:00;9.57;;;6.20;;
12970;SDS011;6550;48.650;8.774;2024-02-26T00:58:27;7.97;;;6.00;;
12970;SDS011;6550;48.650;8.774;2024-02-26T01:00:54;9.10;;;6.87;;
12970;SDS011;6550;48.650;8.774;2024-02-26T01:03:23;10.37;;;6.70;;
12970;SDS011;6550;48.650;8.774;2024-02-26T01:05:50;9.40;;;6.88;;
12970;SDS011;6550;48.650;8.774;2024-02-26T01:08:20;11.00;;;7.20;;
12970;SDS011;6550;48.650;8.774;2024-02-26T01:10:47;7.60;;;6.03;;
12970;SDS011;6550;48.650;8.774;2024-02-26T01:13:14;6.97;;;5.63;;
12970;SDS011;6550;48.650;8.774;2024-02-26T01:15:41;8.93;;;6.40;;
12970;SDS011;6550;48.650;8.774;2024-02-26T01:18:10;9.10;;;6.50;;
12970;SDS011;6550;48.650;8.774;2024-02-26T01:20:38;10.10;;;6.00;;
12970;SDS011;6550;48.650;8.774;2024-02-26T01:23:06;7.63;;;5.80;;
12970;SDS011;6550;48.650;8.774;2024-02-26T01:25:32;7.90;;;6.33;;
12970;SDS011;6550;48.650;8.774;2024-02-26T01:28:02;7.23;;;5.80;;
12970;SDS011;6550;48.650;8.774;2024-02-26T01:30:29;7.50;;;6.00;;
12970;SDS011;6550;48.650;8.774;2024-02-26T01:32:59;7.63;;;5.93;;
12970;SDS011;6550;48.650;8.774;2024-02-26T01:35:26;8.93;;;6.17;;
12970;SDS011;6550;48.650;8.774;2024-02-26T01:37:53;13.70;;;6.23;;
12970;SDS011;6550;48.650;8.774;2024-02-26T01:40:26;6.93;;;5.40;;
12970;SDS011;6550;48.650;8.774;2024-02-26T01:42:53;6.77;;;5.30;;
12970;SDS011;6550;48.650;8.774;2024-02-26T01:45:22;6.27;;;5.43;;
12970;SDS011;6550;48.650;8.774;2024-02-26T01:47:51;6.63;;;5.13;;
12970;SDS011;6550;48.650;8.774;2024-02-26T01:50:19;8.80;;;5.60;;
12970;SDS011;6550;48.650;8.774;2024-02-26T01:52:50;7.83;;;5.50;;
12970;SDS011;6550;48.650;8.774;2024-02-26T01:55:18;6.60;;;5.10;;
12970;SDS011;6550;48.650;8.774;2024-02-26T01:57:47;7.27;;;5.07;;
12970;SDS011;6550;48.650;8.774;2024-02-26T02:00:20;6.53;;;5.10;;
12970;SDS011;6550;48.650;8.774;2024-02-26T02:02:48;9.00;;;5.80;;
12970;SDS011;6550;48.650;8.774;2024-02-26T02:05:16;6.10;;;4.90;;
12970;SDS011;6550;48.650;8.774;2024-02-26T02:07:47;6.30;;;4.80;;
12970;SDS011;6550;48.650;8.774;2024-02-26T02:10:15;5.90;;;4.63;;
12970;SDS011;6550;48.650;8.774;2024-02-26T02:12:49;8.83;;;4.90;;
12970;SDS011;6550;48.650;8.774;2024-02-26T02:15:16;7.20;;;4.90;;
12970;SDS011;6550;48.650;8.774;2024-02-26T02:17:43;5.67;;;5.07;;
12970;SDS011;6550;48.650;8.774;2024-02-26T02:20:16;6.17;;;4.80;;
12970;SDS011;6550;48.650;8.774;2024-02-26T02:22:44;5.67;;;4.70;;
12970;SDS011;6550;48.650;8.774;2024-02-26T02:25:12;7.13;;;4.90;;
12970;SDS011;6550;48.650;8.774;2024-02-26T02:27:40;6.93;;;4.90;;
12970;SDS011;6550;48.650;8.774;2024-02-26T02:30:12;5.37;;;4.77;;
12970;SDS011;6550;48.650;8.774;2024-02-26T02:32:40;7.25;;;5.00;;
12970;SDS011;6550;48.650;8.774;2024-02-26T02:35:08;5.83;;;4.17;;
12970;SDS011;6550;48.650;8.774;2024-02-26T02:37:35;6.03;;;4.70;;
12970;SDS011;6550;48.650;8.774;2024-02-26T02:40:03;10.37;;;5.13;;
12970;SDS011;6550;48.650;8.774;2024-02-26T02:42:31;6.87;;;4.83;;
12970;SDS011;6550;48.650;8.774;2024-02-26T02:44:58;4.67;;;4.17;;
12970;SDS011;6550;48.650;8.774;2024-02-26T02:47:27;6.43;;;4.57;;
12970;SDS011;6550;48.650;8.774;2024-02-26T02:49:53;4.13;;;3.63;;
12970;SDS011;6550;48.650;8.774;2024-02-26T02:52:22;6.10;;;3.60;;
12970;SDS011;6550;48.650;8.774;2024-02-26T02:54:49;4.90;;;3.80;;
12970;SDS011;6550;48.650;8.774;2024-02-26T02:57:19;5.63;;;4.47;;
12970;SDS011;6550;48.650;8.774;2024-02-26T02:59:46;4.30;;;3.83;;
12970;SDS011;6550;48.650;8.774;2024-02-26T03:02:12;7.13;;;4.07;;
12970;SDS011;6550;48.650;8.774;2024-02-26T03:04:41;4.73;;;4.10;;
12970;SDS011;6550;48.650;8.774;2024-02-26T03:07:11;4.10;;;3.70;;
12970;SDS011;6550;48.650;8.774;2024-02-26T03:09:37;4.33;;;3.70;;
12970;SDS011;6550;48.650;8.774;2024-02-26T03:12:04;4.50;;;3.83;;
12970;SDS011;6550;48.650;8.774;2024-02-26T03:14:31;4.57;;;4.00;;
12970;SDS011;6550;48.650;8.774;2024-02-26T03:17:00;4.33;;;3.37;;
12970;SDS011;6550;48.650;8.774;2024-02-26T03:19:27;4.40;;;3.97;;
12970;SDS011;6550;48.650;8.774;2024-02-26T03:21:54;4.23;;;3.40;;
12970;SDS011;6550;48.650;8.774;2024-02-26T03:24:21;4.53;;;3.80;;
12970;SDS011;6550;48.650;8.774;2024-02-26T03:26:48;4.17;;;3.63;;
12970;SDS011;6550;48.650;8.774;2024-02-26T03:29:15;3.23;;;2.93;;
12970;SDS011;6550;48.650;8.774;2024-02-26T03:31:45;6.23;;;3.67;;
12970;SDS011;6550;48.650;8.774;2024-02-26T03:34:14;4.87;;;3.60;;
12970;SDS011;6550;48.650;8.774;2024-02-26T03:36:45;3.33;;;3.03;;
12970;SDS011;6550;48.650;8.774;2024-02-26T03:39:12;4.03;;;3.40;;
12970;SDS011;6550;48.650;8.774;2024-02-26T03:41:38;5.60;;;3.70;;
12970;SDS011;6550;48.650;8.774;2024-02-26T03:44:08;4.13;;;3.20;;
12970;SDS011;6550;48.650;8.774;2024-02-26T03:46:36;3.70;;;3.20;;
12970;SDS011;6550;48.650;8.774;2024-02-26T03:49:02;3.40;;;3.10;;
12970;SDS011;6550;48.650;8.774;2024-02-26T03:51:30;3.60;;;3.00;;
12970;SDS011;6550;48.650;8.774;2024-02-26T03:53:58;4.43;;;4.03;;
12970;SDS011;6550;48.650;8.774;2024-02-26T03:56:25;4.23;;;3.10;;
12970;SDS011;6550;48.650;8.774;2024-02-26T03:58:55;3.57;;;2.87;;
12970;SDS011;6550;48.650;8.774;2024-02-26T04:01:22;3.40;;;3.10;;
12970;SDS011;6550;48.650;8.774;2024-02-26T04:03:48;3.63;;;3.23;;
12970;SDS011;6550;48.650;8.774;2024-02-26T04:06:18;3.47;;;3.07;;
12970;SDS011;6550;48.650;8.774;2024-02-26T04:08:48;5.20;;;3.20;;
12970;SDS011;6550;48.650;8.774;2024-02-26T04:11:18;4.67;;;3.03;;
12970;SDS011;6550;48.650;8.774;2024-02-26T04:13:45;4.10;;;2.97;;
12970;SDS011;6550;48.650;8.774;2024-02-26T04:16:17;4.27;;;3.20;;
12970;SDS011;6550;48.650;8.774;2024-02-26T04:18:46;3.97;;;3.23;;
12970;SDS011;6550;48.650;8.774;2024-02-26T04:21:16;6.20;;;2.80;;
12970;SDS011;6550;48.650;8.774;2024-02-26T04:23:43;3.43;;;2.90;;
12970;SDS011;6550;48.650;8.774;2024-02-26T04:26:10;3.97;;;3.58;;
12970;SDS011;6550;48.650;8.774;2024-02-26T04:28:36;4.70;;;3.50;;
12970;SDS011;6550;48.650;8.774;2024-02-26T04:31:05;4.03;;;3.17;;
12970;SDS011;6550;48.650;8.774;2024-02-26T04:33:33;3.67;;;3.30;;
12970;SDS011;6550;48.650;8.774;2024-02-26T04:36:01;3.70;;;3.00;;
12970;SDS011;6550;48.650;8.774;2024-02-26T04:38:29;6.10;;;3.60;;
12970;SDS011;6550;48.650;8.774;2024-02-26T04:40:56;3.90;;;3.20;;
12970;SDS011;6550;48.650;8.774;2024-02-26T04:43:23;5.90;;;3.33;;
12970;SDS011;6550;48.650;8.774;2024-02-26T04:45:50;4.30;;;3.43;;
12970;SDS011;6550;48.650;8.774;2024-02-26T04:48:16;6.85;;;3.67;;
12970;SDS011;6550;48.650;8.774;2024-02-26T04:50:43;3.97;;;3.37;;
12970;SDS011;6550;48.650;8.774;2024-02-26T04:53:13;5.20;;;3.50;;
12970;SDS011;6550;48.650;8.774;2024-02-26T04:55:40;5.03;;;3.40;;
12970;SDS011;6550;48.650;8.774;2024-02-26T04:58:11;4.60;;;3.53;;
12970;SDS011;6550;48.650;8.774;2024-02-26T05:00:38;3.93;;;3.40;;
12970;SDS011;6550;48.650;8.774;2024-02-26T05:03:05;5.27;;;3.37;;
12970;SDS011;6550;48.650;8.774;2024-02-26T05:05:32;3.93;;;3.53;;
12970;SDS011;6550;48.650;8.774;2024-02-26T05:07:59;3.90;;;3.30;;
12970;SDS011;6550;48.650;8.774;2024-02-26T05:10:26;4.20;;;3.03;;
12970;SDS011;6550;48.650;8.774;2024-02-26T05:12:57;3.10;;;2.77;;
12970;SDS011;6550;48.650;8.774;2024-02-26T05:15:24;3.73;;;3.13;;
12970;SDS011;6550;48.650;8.774;2024-02-26T05:17:51;3.43;;;2.73;;
12970;SDS011;6550;48.650;8.774;2024-02-26T05:20:19;4.17;;;2.97;;
12970;SDS011;6550;48.650;8.774;2024-02-26T05:22:46;3.60;;;3.13;;
12970;SDS011;6550;48.650;8.774;2024-02-26T05:25:17;4.17;;;3.30;;
12970;SDS011;6550;48.650;8.774;2024-02-26T05:27:43;4.10;;;3.13;;
12970;SDS011;6550;48.650;8.774;2024-02-26T05:30:11;5.77;;;3.30;;
12970;SDS011;6550;48.650;8.774;2024-02-26T05:32:38;4.20;;;3.23;;
12970;SDS011;6550;48.650;8.774;2024-02-26T05:35:05;5.50;;;3.03;;
12970;SDS011;6550;48.650;8.774;2024-02-26T05:37:34;5.30;;;3.40;;
12970;SDS011;6550;48.650;8.774;2024-02-26T05:40:06;3.43;;;2.87;;
12970;SDS011;6550;48.650;8.774;2024-02-26T05:42:35;4.17;;;3.00;;
12970;SDS011;6550;48.650;8.774;2024-02-26T05:45:04;4.80;;;3.08;;
12970;SDS011;6550;48.650;8.774;2024-02-26T05:47:33;4.13;;;3.30;;
12970;SDS011;6550;48.650;8.774;2024-02-26T05:50:02;4.53;;;3.23;;
12970;SDS011;6550;48.650;8.774;2024-02-26T05:52:31;6.07;;;3.30;;
12970;SDS011;6550;48.650;8.774;2024-02-26T05:54:59;5.53;;;3.10;;
12970;SDS011;6550;48.650;8.774;2024-02-26T05:57:26;9.37;;;3.13;;
12970;SDS011;6550;48.650;8.774;2024-02-26T05:59:52;3.77;;;2.97;;
12970;SDS011;6550;48.650;8.774;2024-02-26T06:02:19;3.73;;;2.80;;
12970;SDS011;6550;48.650;8.774;2024-02-26T06:04:50;3.73;;;3.10;;
12970;SDS011;6550;48.650;8.774;2024-02-26T06:07:17;5.63;;;2.97;;
12970;SDS011;6550;48.650;8.774;2024-02-26T06:09:44;5.03;;;3.40;;
12970;SDS011;6550;48.650;8.774;2024-02-26T06:12:11;5.13;;;3.30;;
12970;SDS011;6550;48.650;8.774;2024-02-26T06:14:37;3.67;;;2.97;;
12970;SDS011;6550;48.650;8.774;2024-02-26T06:17:06;4.20;;;3.20;;
12970;SDS011;6550;48.650;8.774;2024-02-26T06:19:33;3.50;;;2.83;;
12970;SDS011;6550;48.650;8.774;2024-02-26T06:22:03;3.73;;;3.30;;
12970;SDS011;6550;48.650;8.774;2024-02-26T06:24:32;18.37;;;4.90;;
12970;SDS011;6550;48.650;8.774;2024-02-26T06:26:59;12.30;;;5.37;;
12970;SDS011;6550;48.650;8.774;2024-02-26T06:29:26;8.07;;;3.87;;
12970;SDS011;6550;48.650;8.774;2024-02-26T06:31:53;7.50;;;3.87;;
12970;SDS011;6550;48.650;8.774;2024-02-26T06:34:20;6.13;;;4.27;;
12970;SDS011;6550;48.650;8.774;2024-02-26T06:36:47;6.10;;;3.93;;
12970;SDS011;6550;48.650;8.774;2024-02-26T06:39:17;9.17;;;3.90;;
12970;SDS011;6550;48.650;8.774;2024-02-26T06:41:46;8.52;;;4.20;;
12970;SDS011;6550;48.650;8.774;2024-02-26T06:44:13;8.17;;;4.37;;
12970;SDS011;6550;48.650;8.774;2024-02-26T06:46:40;5.77;;;4.23;;
12970;SDS011;6550;48.650;8.774;2024-02-26T06:49:07;5.00;;;3.80;;
12970;SDS011;6550;48.650;8.774;2024-02-26T06:51:34;5.37;;;3.97;;
12970;SDS011;6550;48.650;8.774;2024-02-26T06:54:03;5.68;;;4.00;;
12970;SDS011;6550;48.650;8.774;2024-02-26T06:56:30;5.37;;;3.90;;
12970;SDS011;6550;48.650;8.774;2024-02-26T06:59:01;8.00;;;3.83;;
12970;SDS011;6550;48.650;8.774;2024-02-26T07:01:28;3.83;;;3.43;;
12970;SDS011;6550;48.650;8.774;2024-02-26T07:03:57;4.03;;;3.60;;
12970;SDS011;6550;48.650;8.774;2024-02-26T07:06:24;5.33;;;3.60;;
12970;SDS011;6550;48.650;8.774;2024-02-26T07:08:51;6.03;;;4.13;;
12970;SDS011;6550;48.650;8.774;2024-02-26T07:11:18;6.33;;;3.57;;
12970;SDS011;6550;48.650;8.774;2024-02-26T07:13:46;5.03;;;4.53;;
12970;SDS011;6550;48.650;8.774;2024-02-26T07:16:13;8.80;;;4.40;;
12970;SDS011;6550;48.650;8.774;2024-02-26T07:18:44;5.57;;;3.70;;
12970;SDS011;6550;48.650;8.774;2024-02-26T07:21:12;4.13;;;3.67;;
12970;SDS011;6550;48.650;8.774;2024-02-26T07:23:39;5.33;;;4.17;;
12970;SDS011;6550;48.650;8.774;2024-02-26T07:26:06;4.30;;;3.90;;
12970;SDS011;6550;48.650;8.774;2024-02-26T07:28:34;7.13;;;3.90;;
12970;SDS011;6550;48.650;8.774;2024-02-26T07:31:01;4.07;;;3.60;;
12970;SDS011;6550;48.650;8.774;2024-02-26T07:33:30;5.33;;;3.57;;
12970;SDS011;6550;48.650;8.774;2024-02-26T07:36:00;4.90;;;3.73;;
12970;SDS011;6550;48.650;8.774;2024-02-26T07:38:29;6.53;;;3.83;;
12970;SDS011;6550;48.650;8.774;2024-02-26T07:41:08;4.20;;;3.40;;
12970;SDS011;6550;48.650;8.774;2024-02-26T07:43:35;4.63;;;2.93;;
12970;SDS011;6550;48.650;8.774;2024-02-26T07:46:03;9.40;;;3.80;;
12970;SDS011;6550;48.650;8.774;2024-02-26T07:48:30;9.07;;;3.50;;
12970;SDS011;6550;48.650;8.774;2024-02-26T07:50:57;4.63;;;3.10;;
12970;SDS011;6550;48.650;8.774;2024-02-26T07:53:26;9.00;;;3.80;;
12970;SDS011;6550;48.650;8.774;2024-02-26T07:55:53;6.73;;;3.40;;
12970;SDS011;6550;48.650;8.774;2024-02-26T07:58:22;4.70;;;3.47;;
12970;SDS011;6550;48.650;8.774;2024-02-26T08:00:50;6.43;;;4.07;;
12970;SDS011;6550;48.650;8.774;2024-02-26T08:03:16;8.67;;;4.00;;
12970;SDS011;6550;48.650;8.774;2024-02-26T08:05:43;7.13;;;3.93;;
12970;SDS011;6550;48.650;8.774;2024-02-26T08:08:10;5.90;;;4.47;;
12970;SDS011;6550;48.650;8.774;2024-02-26T08:10:38;4.57;;;3.43;;
12970;SDS011;6550;48.650;8.774;2024-02-26T08:13:04;4.37;;;3.60;;
12970;SDS011;6550;48.650;8.774;2024-02-26T08:15:34;5.00;;;3.43;;
12970;SDS011;6550;48.650;8.774;2024-02-26T08:18:03;5.73;;;3.60;;
12970;SDS011;6550;48.650;8.774;2024-02-26T08:20:33;4.30;;;3.20;;
12970;SDS011;6550;48.650;8.774;2024-02-26T08:23:03;6.43;;;4.03;;
12970;SDS011;6550;48.650;8.774;2024-02-26T08:25:32;5.13;;;4.03;;
12970;SDS011;6550;48.650;8.774;2024-02-26T08:28:01;9.37;;;4.07;;
12970;SDS011;6550;48.650;8.774;2024-02-26T08:30:31;6.57;;;3.80;;
12970;SDS011;6550;48.650;8.774;2024-02-26T08:32:58;5.63;;;4.37;;
12970;SDS011;6550;48.650;8.774;2024-02-26T08:35:25;6.73;;;3.90;;
12970;SDS011;6550;48.650;8.774;2024-02-26T08:37:52;8.10;;;4.07;;
12970;SDS011;6550;48.650;8.774;2024-02-26T08:40:19;5.87;;;3.90;;
12970;SDS011;6550;48.650;8.774;2024-02-26T08:42:48;4.77;;;3.70;;
12970;SDS011;6550;48.650;8.774;2024-02-26T08:45:16;5.13;;;4.07;;
12970;SDS011;6550;48.650;8.774;2024-02-26T08:47:44;7.97;;;4.47;;
12970;SDS011;6550;48.650;8.774;2024-02-26T08:50:16;7.80;;;4.20;;
12970;SDS011;6550;48.650;8.774;2024-02-26T08:52:45;10.97;;;4.57;;
12970;SDS011;6550;48.650;8.774;2024-02-26T08:55:18;7.30;;;4.37;;
12970;SDS011;6550;48.650;8.774;2024-02-26T08:57:46;4.60;;;4.03;;
12970;SDS011;6550;48.650;8.774;2024-02-26T09:00:16;8.60;;;4.40;;
12970;SDS011;6550;48.650;8.774;2024-02-26T09:02:44;7.70;;;4.72;;
12970;SDS011;6550;48.650;8.774;2024-02-26T09:05:13;5.93;;;4.37;;
12970;SDS011;6550;48.650;8.774;2024-02-26T09:07:40;4.93;;;4.13;;
12970;SDS011;6550;48.650;8.774;2024-02-26T09:10:07;5.50;;;4.13;;
12970;SDS011;6550;48.650;8.774;2024-02-26T09:12:37;4.43;;;4.03;;
12970;SDS011;6550;48.650;8.774;2024-02-26T09:15:06;5.53;;;4.47;;
12970;SDS011;6550;48.650;8.774;2024-02-26T09:17:34;5.33;;;4.40;;
12970;SDS011;6550;48.650;8.774;2024-02-26T09:20:03;4.77;;;3.80;;
12970;SDS011;6550;48.650;8.774;2024-02-26T09:22:37;5.63;;;4.20;;
12970;SDS011;6550;48.650;8.774;2024-02-26T09:25:08;5.07;;;4.35;;
12970;SDS011;6550;48.650;8.774;2024-02-26T09:27:35;4.43;;;4.03;;
12970;SDS011;6550;48.650;8.774;2024-02-26T09:30:08;5.43;;;4.40;;
12970;SDS011;6550;48.650;8.774;2024-02-26T09:32:36;5.83;;;3.80;;
12970;SDS011;6550;48.650;8.774;2024-02-26T09:35:03;7.20;;;4.10;;
12970;SDS011;6550;48.650;8.774;2024-02-26T09:37:31;4.70;;;3.83;;
12970;SDS011;6550;48.650;8.774;2024-02-26T09:39:59;10.73;;;4.13;;
12970;SDS011;6550;48.650;8.774;2024-02-26T09:42:26;5.37;;;4.00;;
12970;SDS011;6550;48.650;8.774;2024-02-26T09:44:54;5.00;;;4.07;;
12970;SDS011;6550;48.650;8.774;2024-02-26T09:47:23;6.43;;;3.97;;
12970;SDS011;6550;48.650;8.774;2024-02-26T09:49:53;5.57;;;4.07;;
12970;SDS011;6550;48.650;8.774;2024-02-26T09:52:23;4.75;;;4.15;;
12970;SDS011;6550;48.650;8.774;2024-02-26T09:54:54;5.70;;;4.43;;
12970;SDS011;6550;48.650;8.774;2024-02-26T09:57:21;4.87;;;4.23;;
12970;SDS011;6550;48.650;8.774;2024-02-26T09:59:51;6.90;;;4.63;;
12970;SDS011;6550;48.650;8.774;2024-02-26T10:02:20;4.67;;;3.80;;
12970;SDS011;6550;48.650;8.774;2024-02-26T10:04:50;4.97;;;4.30;;
12970;SDS011;6550;48.650;8.774;2024-02-26T10:07:20;4.33;;;3.93;;
12970;SDS011;6550;48.650;8.774;2024-02-26T10:09:52;4.63;;;3.90;;
12970;SDS011;6550;48.650;8.774;2024-02-26T10:12:22;5.90;;;3.90;;
12970;SDS011;6550;48.650;8.774;2024-02-26T10:14:53;7.17;;;3.90;;
12970;SDS011;6550;48.650;8.774;2024-02-26T10:17:20;6.20;;;3.97;;
12970;SDS011;6550;48.650;8.774;2024-02-26T10:19:47;5.17;;;4.67;;
12970;SDS011;6550;48.650;8.774;2024-02-26T10:22:20;5.37;;;4.17;;
12970;SDS011;6550;48.650;8.774;2024-02-26T10:24:48;6.63;;;4.07;;
12970;SDS011;6550;48.650;8.774;2024-02-26T10:27:15;4.00;;;3.60;;
12970;SDS011;6550;48.650;8.774;2024-02-26T10:29:42;4.87;;;3.90;;
12970;SDS011;6550;48.650;8.774;2024-02-26T10:32:13;5.60;;;4.30;;
12970;SDS011;6550;48.650;8.774;2024-02-26T10:34:40;4.97;;;4.23;;
12970;SDS011;6550;48.650;8.774;2024-02-26T10:37:08;4.20;;;3.80;;
12970;SDS011;6550;48.650;8.774;2024-02-26T10:39:36;4.80;;;3.83;;
12970;SDS011;6550;48.650;8.774;2024-02-26T10:42:04;3.67;;;3.30;;
12970;SDS011;6550;48.650;8.774;2024-02-26T10:44:36;4.47;;;3.03;;
12970;SDS011;6550;48.650;8.774;2024-02-26T10:47:07;3.57;;;3.27;;
12970;SDS011;6550;48.650;8.774;2024-02-26T10:49:34;3.77;;;3.37;;
12970;SDS011;6550;48.650;8.774;2024-02-26T10:52:02;3.50;;;3.20;;
12970;SDS011;6550;48.650;8.774;2024-02-26T10:54:33;3.20;;;2.90;;
12970;SDS011;6550;48.650;8.774;2024-02-26T10:57:06;3.43;;;3.10;;
12970;SDS011;6550;48.650;8.774;2024-02-26T10:59:37;3.00;;;2.70;;
12970;SDS011;6550;48.650;8.774;2024-02-26T11:02:08;2.67;;;2.47;;
12970;SDS011;6550;48.650;8.774;2024-02-26T11:04:36;2.90;;;2.60;;
12970;SDS011;6550;48.650;8.774;2024-02-26T11:07:04;3.37;;;2.63;;
12970;SDS011;6550;48.650;8.774;2024-02-26T11:09:36;3.00;;;2.60;;
12970;SDS011;6550;48.650;8.774;2024-02-26T11:12:08;2.80;;;2.50;;
12970;SDS011;6550;48.650;8.774;2024-02-26T11:14:40;2.57;;;2.37;;
12970;SDS011;6550;48.650;8.774;2024-02-26T11:17:11;2.50;;;2.30;;
12970;SDS011;6550;48.650;8.774;2024-02-26T11:19:42;2.93;;;2.53;;
12970;SDS011;6550;48.650;8.774;2024-02-26T11:22:13;3.97;;;2.17;;
12970;SDS011;6550;48.650;8.774;2024-02-26T11:24:50;2.33;;;1.90;;
12970;SDS011;6550;48.650;8.774;2024-02-26T11:27:21;2.33;;;2.13;;
12970;SDS011;6550;48.650;8.774;2024-02-26T11:29:56;2.40;;;1.93;;
12970;SDS011;6550;48.650;8.774;2024-02-26T11:32:26;2.30;;;1.90;;
12970;SDS011;6550;48.650;8.774;2024-02-26T11:34:57;2.00;;;1.70;;
12970;SDS011;6550;48.650;8.774;2024-02-26T11:37:25;1.93;;;1.80;;
12970;SDS011;6550;48.650;8.774;2024-02-26T11:39:52;1.97;;;1.77;;
12970;SDS011;6550;48.650;8.774;2024-02-26T11:42:24;1.87;;;1.70;;
12970;SDS011;6550;48.650;8.774;2024-02-26T11:44:56;3.10;;;1.83;;
12970;SDS011;6550;48.650;8.774;2024-02-26T11:47:27;2.27;;;1.70;;
12970;SDS011;6550;48.650;8.774;2024-02-26T11:49:54;2.27;;;1.60;;
12970;SDS011;6550;48.650;8.774;2024-02-26T11:52:21;3.47;;;1.63;;
12970;SDS011;6550;48.650;8.774;2024-02-26T11:54:53;1.90;;;1.70;;
12970;SDS011;6550;48.650;8.774;2024-02-26T12:00:20;1.73;;;1.27;;
12970;SDS011;6550;48.650;8.774;2024-02-26T12:02:50;1.50;;;1.40;;
12970;SDS011;6550;48.650;8.774;2024-02-26T12:05:24;2.50;;;1.70;;
12970;SDS011;6550;48.650;8.774;2024-02-26T12:08:00;1.97;;;1.57;;
12970;SDS011;6550;48.650;8.774;2024-02-26T12:10:38;1.92;;;1.65;;
12970;SDS011;6550;48.650;8.774;2024-02-26T12:13:13;1.50;;;1.40;;
12970;SDS011;6550;48.650;8.774;2024-02-26T12:15:46;1.50;;;1.40;;
12970;SDS011;6550;48.650;8.774;2024-02-26T12:18:25;1.40;;;1.30;;
12970;SDS011;6550;48.650;8.774;2024-02-26T12:20:59;0.93;;;0.90;;
12970;SDS011;6550;48.650;8.774;2024-02-26T12:23:30;2.67;;;1.50;;
12970;SDS011;6550;48.650;8.774;2024-02-26T12:26:02;1.40;;;1.30;;
12970;SDS011;6550;48.650;8.774;2024-02-26T12:28:36;3.07;;;1.20;;
12970;SDS011;6550;48.650;8.774;2024-02-26T12:31:03;1.70;;;1.30;;
12970;SDS011;6550;48.650;8.774;2024-02-26T12:33:33;1.30;;;1.20;;
12970;SDS011;6550;48.650;8.774;2024-02-26T12:36:01;2.07;;;1.50;;
12970;SDS011;6550;48.650;8.774;2024-02-26T12:38:28;1.60;;;1.40;;
12970;SDS011;6550;48.650;8.774;2024-02-26T12:40:59;1.50;;;1.40;;
12970;SDS011;6550;48.650;8.774;2024-02-26T12:43:28;2.90;;;1.60;;
12970;SDS011;6550;48.650;8.774;2024-02-26T12:45:56;1.83;;;1.33;;
12970;SDS011;6550;48.650;8.774;2024-02-26T12:48:29;3.23;;;1.40;;
12970;SDS011;6550;48.650;8.774;2024-02-26T12:50:56;1.40;;;1.30;;
12970;SDS011;6550;48.650;8.774;2024-02-26T12:53:23;1.23;;;1.13;;
12970;SDS011;6550;48.650;8.774;2024-02-26T12:55:52;1.93;;;1.40;;
12970;SDS011;6550;48.650;8.774;2024-02-26T12:58:21;1.77;;;1.27;;
12970;SDS011;6550;48.650;8.774;2024-02-26T13:00:51;2.70;;;1.03;;
12970;SDS011;6550;48.650;8.774;2024-02-26T13:03:19;1.43;;;1.33;;
12970;SDS011;6550;48.650;8.774;2024-02-26T13:05:46;1.33;;;1.20;;
12970;SDS011;6550;48.650;8.774;2024-02-26T13:08:19;1.33;;;1.10;;
12970;SDS011;6550;48.650;8.774;2024-02-26T13:10:52;4.77;;;1.33;;
12970;SDS011;6550;48.650;8.774;2024-02-26T13:13:24;2.73;;;1.30;;
12970;SDS011;6550;48.650;8.774;2024-02-26T13:16:06;5.87;;;1.50;;
12970;SDS011;6550;48.650;8.774;2024-02-26T13:18:35;0.97;;;0.97;;
12970;SDS011;6550;48.650;8.774;2024-02-26T13:21:07;1.17;;;0.97;;
12970;SDS011;6550;48.650;8.774;2024-02-26T13:23:45;2.07;;;1.13;;
12970;SDS011;6550;48.650;8.774;2024-02-26T13:26:15;1.10;;;1.00;;
12970;SDS011;6550;48.650;8.774;2024-02-26T13:28:47;1.17;;;0.93;;
12970;SDS011;6550;48.650;8.774;2024-02-26T13:31:24;1.77;;;1.10;;
12970;SDS011;6550;48.650;8.774;2024-02-26T13:33:51;0.77;;;0.77;;
12970;SDS011;6550;48.650;8.774;2024-02-26T13:36:22;2.23;;;0.70;;
12970;SDS011;6550;48.650;8.774;2024-02-26T13:38:52;1.63;;;0.80;;
12970;SDS011;6550;48.650;8.774;2024-02-26T13:41:22;0.80;;;0.77;;
12970;SDS011;6550;48.650;8.774;2024-02-26T13:43:50;2.37;;;0.90;;
12970;SDS011;6550;48.650;8.774;2024-02-26T13:46:17;0.77;;;0.60;;
12970;SDS011;6550;48.650;8.774;2024-02-26T13:48:46;5.03;;;0.90;;
12970;SDS011;6550;48.650;8.774;2024-02-26T13:51:15;0.87;;;0.70;;
12970;SDS011;6550;48.650;8.774;2024-02-26T13:53:44;1.03;;;0.70;;
12970;SDS011;6550;48.650;8.774;2024-02-26T13:56:13;0.70;;;0.60;;
12970;SDS011;6550;48.650;8.774;2024-02-26T13:58:42;0.57;;;0.57;;
12970;SDS011;6550;48.650;8.774;2024-02-26T14:01:11;2.40;;;0.80;;
12970;SDS011;6550;48.650;8.774;2024-02-26T14:03:39;0.90;;;0.70;;
12970;SDS011;6550;48.650;8.774;2024-02-26T14:06:06;0.50;;;0.50;;
12970;SDS011;6550;48.650;8.774;2024-02-26T14:08:33;1.07;;;0.70;;
12970;SDS011;6550;48.650;8.774;2024-02-26T14:11:00;1.58;;;0.70;;
12970;SDS011;6550;48.650;8.774;2024-02-26T14:13:27;4.43;;;0.93;;
12970;SDS011;6550;48.650;8.774;2024-02-26T14:15:53;0.60;;;0.60;;
12970;SDS011;6550;48.650;8.774;2024-02-26T14:18:22;0.50;;;0.50;;
12970;SDS011;6550;48.650;8.774;2024-02-26T14:20:50;0.60;;;0.57;;
12970;SDS011;6550;48.650;8.774;2024-02-26T14:23:20;3.60;;;0.77;;
12970;SDS011;6550;48.650;8.774;2024-02-26T14:25:47;1.80;;;0.60;;
12970;SDS011;6550;48.650;8.774;2024-02-26T14:28:14;0.60;;;0.60;;
12970;SDS011;6550;48.650;8.774;2024-02-26T14:30:50;0.50;;;0.50;;
12970;SDS011;6550;48.650;8.774;2024-02-26T14:33:17;0.83;;;0.60;;
12970;SDS011;6550;48.650;8.774;2024-02-26T14:35:44;1.10;;;0.70;;
12970;SDS011;6550;48.650;8.774;2024-02-26T14:38:11;0.67;;;0.60;;
12970;SDS011;6550;48.650;8.774;2024-02-26T14:40:43;4.43;;;0.60;;
12970;SDS011;6550;48.650;8.774;2024-02-26T14:43:10;0.70;;;0.60;;
12970;SDS011;6550;48.650;8.774;2024-02-26T14:45:37;1.13;;;0.70;;
12970;SDS011;6550;48.650;8.774;2024-02-26T14:48:05;0.60;;;0.60;;
12970;SDS011;6550;48.650;8.774;2024-02-26T14:50:32;0.70;;;0.68;;
12970;SDS011;6550;48.650;8.774;2024-02-26T14:52:59;0.70;;;0.70;;
12970;SDS011;6550;48.650;8.774;2024-02-26T14:55:28;0.50;;;0.50;;
12970;SDS011;6550;48.650;8.774;2024-02-26T14:57:55;0.97;;;0.70;;
12970;SDS011;6550;48.650;8.774;2024-02-26T15:00:22;0.83;;;0.40;;
12970;SDS011;6550;48.650;8.774;2024-02-26T15:02:49;0.80;;;0.47;;
12970;SDS011;6550;48.650;8.774;2024-02-26T15:05:20;0.50;;;0.50;;
12970;SDS011;6550;48.650;8.774;2024-02-26T15:07:50;0.67;;;0.50;;
12970;SDS011;6550;48.650;8.774;2024-02-26T15:10:17;0.43;;;0.43;;
12970;SDS011;6550;48.650;8.774;2024-02-26T15:12:45;0.67;;;0.60;;